x

North Hecate Strait (46183) Wave Buoy

11:00pm - Thu 29th Jan 2015 All times are PST. -8 hours from GMT.

  • Sig Wave height 3.6ft
  • Peak Period 7s
  • Wind
    18mph, 20mph gusts
  • Sea Temp 49°f
  • Air Temp 45°f
  • Sea Pressure 1021.4mb
  • North Hecate Strait
  • North Hecate Strait

More Historic Weather Station data

Upgrade to MSW Pro to gain access to the past 30 days of data for over 8000 Wavebouys and Weather Stations around the globe.

Join Pro

Comparision Forecast

View Surf forecast
   
Thu 01/29 11:00pm 3.5ft 7s 18 20 mph 1021.4mb 49f 45f
10:00pm 4ft 7s 13 16 mph 1022mb 49f 46f
9:00pm 4ft 7s 18 20 mph 1022.2mb 49f 47f
8:00pm 4.5ft 7s 18 22 mph 1022.6mb 49f 47f
7:00pm 4.5ft 7s 4
mph
1023.1mb 49f 47f
6:00pm 4.5ft 7s 7 9 mph 1022.9mb 49f 47f
5:00pm 5ft 7s 4 7 mph 1023.2mb 49f 47f
4:00pm 5ft 7s 4 7 mph 1023.7mb 49f 47f
3:00pm 5ft 8s 9 11 mph 1023.3mb 49f 47f
2:00pm 5ft 8s 9 11 mph 1023.5mb 49f 47f
1:00pm 5ft 8s 9 11 mph 1023.5mb 49f 46f
12:00pm 5ft 8s 7 9 mph 1023.2mb 49f 47f
11:00am 6ft 7s 2 4 mph 1023.2mb 49f 48f
10:00am 6ft 7s 7 9 mph 1023.1mb 49f 48f
9:00am 7.5ft 8s 13 16 mph 1022.7mb 49f 49f
8:00am 6.5ft 8s 18 22 mph 1022.3mb 49f 48f
7:00am 7.5ft 8s 20 22 mph 1022.2mb 49f 48f
6:00am 8ft 7s 22 29 mph 1022.3mb 49f 48f
5:00am 9.5ft 8s 27 34 mph 1022.1mb 49f 48f
4:00am 10ft 7s 31 38 mph 1021.9mb 49f 47f
3:00am 10ft 8s 29 36 mph 1022.1mb 49f 48f
2:00am 9.5ft 8s 31 38 mph 1021.7mb 49f 48f
1:00am 10ft 8s 31
mph
1021.6mb 49f 48f
12:00am 11ft 8s 31 40 mph 1021.7mb 49f 48f
Wed 01/28 11:00pm 11ft 8s 36 43 mph 1021.3mb 49f 48f
10:00pm 12ft 8s 36 43 mph 1021mb 49f 48f
9:00pm 10ft 7s 31 40 mph 1020.9mb 49f 48f
8:00pm 9ft 7s 31 40 mph 1020.9mb 49f 49f
7:00pm 10ft 7s 34 40 mph 1020.8mb 49f 49f
6:00pm 9.5ft 7s 31 40 mph 1021mb 49f 49f
5:00pm 10ft 8s 29 36 mph 1021.2mb 49f 47f
4:00pm 10.5ft 8s 31 36 mph 1021.6mb 49f 47f
3:00pm 11ft 8s 31 38 mph 1021.6mb 49f 47f
2:00pm 12ft 8s 31 38 mph 1021.8mb 49f 47f
1:00pm 10.5ft 7s 31 40 mph 1022.1mb 49f 47f
12:00pm 9ft 7s 31 40 mph 1022.3mb 49f 47f
11:00am 9ft 7s 31 40 mph 1022.5mb 49f 48f
10:00am 8ft 7s 29 36 mph 1022.3mb 49f 47f
9:00am 7ft 6s 29 36 mph 1022.3mb 49f 47f
8:00am 6.5ft 6s 29 36 mph 1022.1mb 49f 47f
7:00am 6ft 5s 25 31 mph 1022.2mb 49f 47f
6:00am 6ft 6s 27 31 mph 1022.3mb 48f 47f
5:00am 5.5ft 5s 27 31 mph 1022.3mb 49f 47f
4:00am 5ft 5s 27 34 mph 1022.3mb 49f 47f
3:00am 4.5ft 5s 22 27 mph 1022.7mb 48f 47f
2:00am 3.5ft 4s 25 31 mph 1022.6mb 48f 46f
1:00am 3ft 4s 20 27 mph 1022.6mb 48f 46f
12:00am 2.5ft 4s 20 22 mph 1022.6mb 48f 47f
Tue 01/27 11:00pm 2ft 8s 18 20 mph 1022.5mb 48f 46f
10:00pm 2ft 8s 16 18 mph 1022mb 48f 45f
9:00pm 2ft 8s 11 13 mph 1021.9mb 48f 45f
8:00pm 2ft 8s 4 9 mph 1021.8mb 48f 45f
7:00pm 2.5ft 6s 2 4 mph 1021.2mb 48f 45f
6:00pm 2ft 7s 2
mph
1020.8mb 48f 44f
5:00pm 2.5ft 8s  -  2 mph 1020.3mb 48f 43f
4:00pm 2.5ft 7s 4 9 mph 1020mb 48f 44f
3:00pm 2.5ft 7s 11 16 mph 1019.7mb 49f 44f
2:00pm 2.5ft 7s 9 11 mph 1019.2mb 49f 44f
1:00pm 2.5ft 8s 11 16 mph 1018.7mb 49f 44f
12:00pm 3ft 8s 7 9 mph 1018.1mb 49f 44f
11:00am 3.5ft 8s 11 13 mph 1017.1mb 49f 44f
10:00am 4ft 8s 11 13 mph 1015.8mb 49f 45f
9:00am 4.5ft 8s 11 16 mph 1014.7mb 48f 45f
8:00am 4.5ft 9s 16 20 mph 1013.5mb 48f 45f
7:00am 5ft 8s 11 18 mph 1012.2mb 48f 45f
6:00am 5ft 9s 16 22 mph 1011.2mb 48f 45f
5:00am 5ft 8s 16 20 mph 1010mb 48f 45f
4:00am 5.5ft 8s 18 20 mph 1008.9mb 49f 45f
3:00am 5.5ft 8s 18 22 mph 1007.7mb 49f 44f
2:00am 5.5ft 8s 22 27 mph 1006.3mb 49f 45f
1:00am 6ft 6s 20 25 mph 1005.1mb 49f 44f
12:00am 5.5ft 5s 25 29 mph 1003.6mb 49f 44f
Mon 01/26 11:00pm 5ft 6s 22 29 mph 1002.4mb 49f 45f
10:00pm 5ft 6s 20 27 mph 1001.8mb 49f 45f
9:00pm 5ft 5s 22 27 mph 1001mb 49f 46f
8:00pm 4.5ft 5s 22 27 mph 1000.5mb 49f 46f
7:00pm 4.5ft 6s 20 25 mph 1000.7mb 49f 45f
6:00pm 3.5ft 6s 18 20 mph 1000.7mb 48f 45f
5:00pm 3.5ft 5s 18 20 mph 1001mb 48f 46f
4:00pm 4ft 5s 16 18 mph 1002.1mb 49f 45f
3:00pm 3.5ft 6s 16 20 mph 1003.2mb 49f 46f
2:00pm 3.5ft 5s 18 20 mph 1004mb 49f 46f
1:00pm 3.5ft 5s 18 20 mph 1005.4mb 49f 46f
12:00pm 3.5ft 5s 16 18 mph 1006.9mb 49f 46f
11:00am 4.5ft 5s 18 22 mph 1007.1mb 49f 46f
10:00am 4ft 4s 20 22 mph 1007.1mb 49f 46f
9:00am 4ft 8s 20 22 mph 1007.6mb 49f 46f